Time;durP1;ratioP1;P1;durP2;ratioP2;P2;SDS_P1;SDS_P2;PMS_P1;PMS_P2;Temp;Humidity;BMP_temperature;BMP_pressure;BME280_temperature;BME280_humidity;BME280_pressure;Samples;Min_cycle;Max_cycle;Signal;HPM_P1;HPM_P2
2022/01/21 00:00:31;;;;;;;4.68;1.98;;;;;;;;;;6186739;23;20305;-70
2022/01/21 00:02:57;;;;;;;3.67;1.63;;;;;;;;;;6186405;23;20318;-70
2022/01/21 00:05:23;;;;;;;3.63;1.98;;;;;;;;;;6186366;23;20009;-69
2022/01/21 00:07:49;;;;;;;3.35;1.88;;;;;;;;;;6186614;23;20369;-70
2022/01/21 00:10:14;;;;;;;4.43;2.35;;;;;;;;;;6186506;23;20001;-70
2022/01/21 00:12:40;;;;;;;4.90;2.38;;;;;;;;;;6186437;23;20383;-70
2022/01/21 00:15:07;;;;;;;3.17;2.10;;;;;;;;;;6186864;23;19997;-70
2022/01/21 00:17:32;;;;;;;3.40;1.88;;;;;;;;;;6160039;23;20008;-69
2022/01/21 00:30:54;;;;;;;4.68;2.22;;;;;;;;;;6186914;23;20052;-71
2022/01/21 00:33:24;;;;;;;2.42;1.67;;;;;;;;;;6135330;23;20008;-72
2022/01/21 00:35:51;;;;;;;;;;;;;;;;;;6186951;23;20089;-72
2022/01/21 00:38:21;;;;;;;4.72;2.30;;;;;;;;;;6159515;23;20324;-71
2022/01/21 00:40:47;;;;;;;3.75;2.17;;;;;;;;;;6186332;23;20005;-69
2022/01/21 00:43:29;;;;;;;2.45;2.03;;;;;;;;;;6186055;23;20057;-70
2022/01/21 00:45:55;;;;;;;3.78;1.80;;;;;;;;;;6159742;23;20392;-70
2022/01/21 00:48:20;;;;;;;2.33;1.45;;;;;;;;;;6185979;23;20043;-70
2022/01/21 00:50:47;;;;;;;3.05;1.60;;;;;;;;;;6185939;23;20430;-69
2022/01/21 00:53:14;;;;;;;1.50;1.40;;;;;;;;;;6159532;23;20004;-70
2022/01/21 00:55:40;;;;;;;2.28;1.67;;;;;;;;;;6134897;23;20303;-70
2022/01/21 00:58:05;;;;;;;1.92;1.45;;;;;;;;;;6186158;23;20036;-70
2022/01/21 01:00:32;;;;;;;2.70;1.67;;;;;;;;;;6185722;23;20460;-69
2022/01/21 01:02:59;;;;;;;2.28;1.45;;;;;;;;;;6159516;23;20005;-70
2022/01/21 01:05:25;;;;;;;1.42;1.17;;;;;;;;;;6185883;23;20005;-70
2022/01/21 01:07:51;;;;;;;2.10;1.60;;;;;;;;;;6185938;23;20024;-70
2022/01/21 01:10:24;;;;;;;3.85;1.58;;;;;;;;;;6185687;23;20019;-69
2022/01/21 01:13:00;;;;;;;3.47;1.70;;;;;;;;;;6185718;23;20337;-69
2022/01/21 01:20:55;;;;;;;1.67;1.55;;;;;;;;;;6185808;23;20036;-68
2022/01/21 01:23:36;;;;;;;2.58;1.65;;;;;;;;;;6186091;23;20672;-68
2022/01/21 01:28:47;;;;;;;2.80;1.38;;;;;;;;;;6186227;23;20009;-69
2022/01/21 01:31:12;;;;;;;2.20;1.50;;;;;;;;;;6159523;23;20009;-69
2022/01/21 01:33:40;;;;;;;1.30;1.17;;;;;;;;;;6188302;23;20005;-69
2022/01/21 01:36:07;;;;;;;3.78;1.33;;;;;;;;;;6187944;23;19997;-69
2022/01/21 01:41:21;;;;;;;1.65;1.33;;;;;;;;;;6161800;23;20005;-70
2022/01/21 01:51:55;;;;;;;2.17;1.40;;;;;;;;;;6187254;23;20071;-69
2022/01/21 01:54:21;;;;;;;2.22;1.08;;;;;;;;;;6161635;23;20005;-69
2022/01/21 01:56:50;;;;;;;2.70;1.27;;;;;;;;;;6161497;23;20009;-69
2022/01/21 01:59:16;;;;;;;1.80;1.30;;;;;;;;;;6161425;23;19997;-70
2022/01/21 02:01:41;;;;;;;1.23;1.00;;;;;;;;;;6187414;23;20005;-70
2022/01/21 02:04:08;;;;;;;3.20;1.30;;;;;;;;;;6161200;23;20092;-69
2022/01/21 02:06:34;;;;;;;1.80;1.10;;;;;;;;;;6187746;23;20325;-70
2022/01/21 02:09:00;;;;;;;1.60;1.00;;;;;;;;;;6161071;23;20038;-70
2022/01/21 02:11:26;;;;;;;1.95;1.40;;;;;;;;;;6187150;23;20016;-70
2022/01/21 02:13:58;;;;;;;1.70;1.05;;;;;;;;;;6187329;23;20001;-70
2022/01/21 02:21:40;;;;;;;1.95;0.95;;;;;;;;;;6188048;23;20005;-69
2022/01/21 02:24:13;;;;;;;5.50;1.38;;;;;;;;;;6187724;23;20016;-69
2022/01/21 02:26:38;;;;;;;3.30;1.73;;;;;;;;;;6161473;23;20071;-69
2022/01/21 02:29:05;;;;;;;3.63;1.50;;;;;;;;;;6161174;23;20044;-69
2022/01/21 02:31:32;;;;;;;1.75;1.30;;;;;;;;;;6161321;23;20043;-69
2022/01/21 02:33:57;;;;;;;1.85;1.20;;;;;;;;;;6187262;23;19997;-69
2022/01/21 02:36:24;;;;;;;1.35;1.20;;;;;;;;;;6187228;23;20311;-69
2022/01/21 02:38:49;;;;;;;1.70;1.30;;;;;;;;;;6161225;23;20351;-68
2022/01/21 02:41:15;;;;;;;1.75;1.25;;;;;;;;;;6160751;23;20020;-68
2022/01/21 02:43:40;;;;;;;1.13;1.00;;;;;;;;;;6160158;23;20409;-69
2022/01/21 02:46:08;;;;;;;2.45;1.00;;;;;;;;;;6187737;23;20013;-68
2022/01/21 02:48:37;;;;;;;1.52;1.15;;;;;;;;;;6160786;23;20071;-69
2022/01/21 02:51:07;;;;;;;1.95;1.35;;;;;;;;;;6160711;23;20112;-70
2022/01/21 02:54:07;;;;;;;1.60;1.30;;;;;;;;;;6160498;23;20009;-69
2022/01/21 02:56:26;;;;;;;1.80;1.08;;;;;;;;;;6156833;23;20013;-70
2022/01/21 02:58:51;;;;;;;2.30;1.25;;;;;;;;;;6161123;23;20005;-69
2022/01/21 03:01:17;;;;;;;1.45;1.17;;;;;;;;;;6136192;23;20028;-69
2022/01/21 03:03:44;;;;;;;1.73;1.15;;;;;;;;;;6160355;23;20001;-69
2022/01/21 03:06:10;;;;;;;2.28;1.30;;;;;;;;;;6160400;23;20013;-69
2022/01/21 03:08:36;;;;;;;2.95;1.30;;;;;;;;;;6160472;23;20399;-70
2022/01/21 03:11:01;;;;;;;2.45;1.50;;;;;;;;;;6160650;23;20016;-71
2022/01/21 03:13:28;;;;;;;1.83;1.13;;;;;;;;;;6187082;23;20044;-70
2022/01/21 03:15:54;;;;;;;2.22;1.30;;;;;;;;;;6160581;23;20367;-69
2022/01/21 03:18:20;;;;;;;4.18;1.70;;;;;;;;;;6187114;23;19997;-70
2022/01/21 03:20:46;;;;;;;2.40;1.73;;;;;;;;;;6160481;23;20015;-70
2022/01/21 03:23:16;;;;;;;2.80;1.30;;;;;;;;;;6186660;23;20023;-69
2022/01/21 03:25:44;;;;;;;;;;;;;;;;;;6160989;23;20088;-68
2022/01/21 03:28:24;;;;;;;2.10;1.45;;;;;;;;;;6160353;23;19900;-69
2022/01/21 03:31:11;;;;;;;2.95;1.73;;;;;;;;;;6137377;23;20013;-69
2022/01/21 03:33:59;;;;;;;3.30;1.33;;;;;;;;;;6138329;23;20050;-70
2022/01/21 03:36:28;;;;;;;2.42;1.73;;;;;;;;;;6160561;23;20009;-72
2022/01/21 03:39:03;;;;;;;5.80;1.58;;;;;;;;;;6160437;23;20048;-70
2022/01/21 03:41:29;;;;;;;3.60;1.83;;;;;;;;;;6160147;23;20481;-70
2022/01/21 03:43:56;;;;;;;2.85;1.35;;;;;;;;;;6159967;23;20476;-71
2022/01/21 03:46:22;;;;;;;2.08;1.23;;;;;;;;;;6160455;23;20009;-70
2022/01/21 03:48:50;;;;;;;2.15;1.35;;;;;;;;;;6187173;23;20024;-69
2022/01/21 03:51:17;;;;;;;1.58;1.40;;;;;;;;;;6160060;23;20071;-69
2022/01/21 03:53:44;;;;;;;2.33;1.05;;;;;;;;;;6135879;23;20324;-70
2022/01/21 03:56:09;;;;;;;2.38;1.38;;;;;;;;;;6186624;23;20041;-70
2022/01/21 03:58:35;;;;;;;1.58;1.27;;;;;;;;;;6160467;23;20004;-70
2022/01/21 04:01:01;;;;;;;1.83;1.02;;;;;;;;;;6135365;23;20420;-69
2022/01/21 04:03:29;;;;;;;2.30;1.23;;;;;;;;;;6160352;23;19998;-70
2022/01/21 04:05:55;;;;;;;2.60;1.45;;;;;;;;;;6160463;23;20120;-70
2022/01/21 04:08:20;;;;;;;2.47;1.33;;;;;;;;;;6160574;23;20029;-70
2022/01/21 04:10:53;;;;;;;1.40;1.23;;;;;;;;;;6160210;23;20092;-70
2022/01/21 04:13:21;;;;;;;1.35;1.08;;;;;;;;;;6135508;23;20024;-69
2022/01/21 04:15:52;;;;;;;2.70;1.13;;;;;;;;;;6160341;23;20056;-70
2022/01/21 04:18:18;;;;;;;2.38;1.33;;;;;;;;;;6186485;23;20012;-69
2022/01/21 04:20:49;;;;;;;3.83;1.25;;;;;;;;;;6159714;23;20028;-69
2022/01/21 04:23:15;;;;;;;1.50;1.17;;;;;;;;;;6159925;23;20005;-69
2022/01/21 04:25:41;;;;;;;1.35;1.02;;;;;;;;;;6160324;23;20303;-69
2022/01/21 04:28:08;;;;;;;2.33;1.38;;;;;;;;;;6159966;23;20016;-69
2022/01/21 04:30:35;;;;;;;3.88;1.20;;;;;;;;;;6135267;23;20039;-69
2022/01/21 04:33:00;;;;;;;1.90;1.17;;;;;;;;;;6159649;23;20056;-69
2022/01/21 04:35:27;;;;;;;1.27;1.05;;;;;;;;;;6159776;23;20001;-70
2022/01/21 04:37:56;;;;;;;1.98;1.10;;;;;;;;;;6186178;23;20044;-70
2022/01/21 04:40:26;;;;;;;3.10;1.00;;;;;;;;;;6159867;23;20076;-70
2022/01/21 04:48:28;;;;;;;4.05;1.20;;;;;;;;;;6130664;23;20040;-70
2022/01/21 04:51:12;;;;;;;1.73;0.90;;;;;;;;;;6130364;23;20009;-70
2022/01/21 04:53:38;;;;;;;2.47;1.27;;;;;;;;;;6130286;23;20307;-70
2022/01/21 04:56:19;;;;;;;1.67;0.90;;;;;;;;;;6130380;23;20008;-70
2022/01/21 04:58:45;;;;;;;2.13;1.40;;;;;;;;;;6156157;23;20008;-70
2022/01/21 05:01:11;;;;;;;3.42;1.38;;;;;;;;;;6130323;23;20013;-70
2022/01/21 05:03:39;;;;;;;2.10;1.30;;;;;;;;;;6130285;23;20020;-70
2022/01/21 05:06:05;;;;;;;1.60;1.00;;;;;;;;;;6129774;23;20343;-70
2022/01/21 05:08:41;;;;;;;2.33;0.90;;;;;;;;;;6129851;23;20376;-70
2022/01/21 05:11:07;;;;;;;2.95;1.35;;;;;;;;;;6129878;23;20009;-70
2022/01/21 05:13:39;;;;;;;3.15;1.20;;;;;;;;;;6155691;23;20009;-70
2022/01/21 05:16:11;;;;;;;2.22;1.33;;;;;;;;;;6129712;23;20001;-70
2022/01/21 05:18:38;;;;;;;1.58;0.73;;;;;;;;;;6155907;23;20012;-70
2022/01/21 05:21:26;;;;;;;4.18;1.58;;;;;;;;;;6133326;23;20434;-70
2022/01/21 05:24:00;;;;;;;2.95;1.52;;;;;;;;;;6130001;23;20017;-70
2022/01/21 05:26:35;;;;;;;2.67;1.35;;;;;;;;;;6129970;23;20315;-70
2022/01/21 05:29:01;;;;;;;2.05;1.17;;;;;;;;;;6130315;23;20009;-69
2022/01/21 05:31:44;;;;;;;1.23;1.10;;;;;;;;;;6130203;23;20005;-70
2022/01/21 05:34:24;;;;;;;3.25;1.63;;;;;;;;;;6129782;23;20028;-69
2022/01/21 05:37:09;;;;;;;2.33;1.33;;;;;;;;;;6140272;23;20014;-69
2022/01/21 05:39:58;;;;;;;3.28;1.67;;;;;;;;;;6114503;23;20020;-69
2022/01/21 05:42:37;;;;;;;2.10;1.25;;;;;;;;;;6130143;23;20089;-70
2022/01/21 05:48:25;;;;;;;3.90;2.03;;;;;;;;;;6148442;23;20034;-70
2022/01/21 05:50:58;;;;;;;2.00;1.05;;;;;;;;;;6185543;23;20392;-70
2022/01/21 05:53:56;;;;;;;2.10;1.30;;;;;;;;;;6150882;23;20017;-70
2022/01/21 05:56:30;;;;;;;3.17;1.70;;;;;;;;;;6185979;23;20058;-70
2022/01/21 05:59:07;;;;;;;2.60;1.50;;;;;;;;;;6185654;23;20005;-69
2022/01/21 06:01:33;;;;;;;3.03;1.50;;;;;;;;;;6159282;23;20027;-70
2022/01/21 06:04:00;;;;;;;1.50;1.08;;;;;;;;;;6185696;23;20078;-70
2022/01/21 06:06:26;;;;;;;2.00;1.30;;;;;;;;;;6159258;23;20040;-70
2022/01/21 06:08:51;;;;;;;1.08;0.90;;;;;;;;;;6159194;23;20012;-70
2022/01/21 06:11:17;;;;;;;1.35;0.82;;;;;;;;;;6158868;23;20005;-70
2022/01/21 06:13:45;;;;;;;1.95;1.23;;;;;;;;;;6185593;23;20072;-70
2022/01/21 06:16:11;;;;;;;4.13;1.38;;;;;;;;;;6158914;23;20413;-69
2022/01/21 06:18:36;;;;;;;6.65;2.08;;;;;;;;;;6185342;23;20004;-69
2022/01/21 06:21:02;;;;;;;2.22;1.50;;;;;;;;;;6187157;23;20009;-70
2022/01/21 06:23:29;;;;;;;1.70;1.27;;;;;;;;;;6187348;23;20012;-69
2022/01/21 06:25:54;;;;;;;4.75;1.90;;;;;;;;;;6187245;23;20005;-69
2022/01/21 06:28:20;;;;;;;2.35;1.55;;;;;;;;;;6161098;23;20008;-70
2022/01/21 06:30:45;;;;;;;2.97;1.48;;;;;;;;;;6187056;23;20009;-70
2022/01/21 06:33:10;;;;;;;4.90;2.08;;;;;;;;;;6186991;23;20004;-70
2022/01/21 06:35:36;;;;;;;4.40;1.77;;;;;;;;;;6186820;23;20093;-70
2022/01/21 06:38:02;;;;;;;4.78;2.05;;;;;;;;;;6187036;23;19997;-70
2022/01/21 06:40:28;;;;;;;2.80;1.88;;;;;;;;;;6186932;23;20011;-70
2022/01/21 06:42:59;;;;;;;1.90;1.50;;;;;;;;;;6186869;23;20072;-70
2022/01/21 06:45:25;;;;;;;3.08;1.80;;;;;;;;;;6186100;23;20017;-70
2022/01/21 06:47:51;;;;;;;4.40;2.38;;;;;;;;;;6186334;23;20009;-70
2022/01/21 06:50:16;;;;;;;2.80;1.52;;;;;;;;;;6187043;23;20005;-70
2022/01/21 06:52:42;;;;;;;2.03;1.48;;;;;;;;;;6187143;23;20464;-69
2022/01/21 06:55:07;;;;;;;2.58;1.52;;;;;;;;;;6187176;23;20005;-70
2022/01/21 06:57:38;;;;;;;4.28;2.05;;;;;;;;;;6187184;23;20107;-70
2022/01/21 07:00:04;;;;;;;3.15;2.08;;;;;;;;;;6187037;23;20059;-70
2022/01/21 07:02:29;;;;;;;2.88;1.48;;;;;;;;;;6186496;23;20354;-70
2022/01/21 07:04:55;;;;;;;5.30;2.50;;;;;;;;;;6186567;23;20032;-69
2022/01/21 07:07:20;;;;;;;2.83;1.67;;;;;;;;;;6186604;23;20008;-69
2022/01/21 07:09:46;;;;;;;4.82;2.28;;;;;;;;;;6160149;23;20009;-70
2022/01/21 07:12:11;;;;;;;5.10;2.70;;;;;;;;;;6186459;23;20330;-70
2022/01/21 07:14:37;;;;;;;3.83;2.17;;;;;;;;;;6186648;23;20005;-69
2022/01/21 07:17:02;;;;;;;3.60;2.15;;;;;;;;;;6186602;23;20007;-70
2022/01/21 07:19:28;;;;;;;3.42;2.25;;;;;;;;;;6186539;23;20484;-70
2022/01/21 07:21:53;;;;;;;4.35;2.47;;;;;;;;;;6186667;23;20369;-70
2022/01/21 07:24:19;;;;;;;4.68;2.40;;;;;;;;;;6186458;23;20009;-69
2022/01/21 07:26:44;;;;;;;3.03;2.40;;;;;;;;;;6186400;23;20421;-70
2022/01/21 07:29:10;;;;;;;2.60;1.92;;;;;;;;;;6186291;23;20009;-70
2022/01/21 07:31:35;;;;;;;5.13;2.47;;;;;;;;;;6186176;23;20357;-70
2022/01/21 07:34:04;;;;;;;2.33;1.48;;;;;;;;;;6186281;23;20009;-70
2022/01/21 07:36:30;;;;;;;2.60;2.15;;;;;;;;;;6186324;23;19992;-69
2022/01/21 07:38:55;;;;;;;4.32;2.67;;;;;;;;;;6186235;23;20333;-70
2022/01/21 07:41:21;;;;;;;6.30;2.65;;;;;;;;;;6186138;23;20025;-70
2022/01/21 07:43:46;;;;;;;5.50;2.35;;;;;;;;;;6186199;23;20013;-70
2022/01/21 07:46:12;;;;;;;3.13;2.03;;;;;;;;;;6185996;23;20040;-70
2022/01/21 07:48:37;;;;;;;5.28;2.70;;;;;;;;;;6186230;23;20009;-70
2022/01/21 07:51:03;;;;;;;4.53;2.97;;;;;;;;;;6186008;23;20092;-70
2022/01/21 07:53:28;;;;;;;6.30;2.90;;;;;;;;;;6186247;23;20001;-70
2022/01/21 07:55:53;;;;;;;4.55;2.75;;;;;;;;;;6186287;23;19997;-70
2022/01/21 07:58:19;;;;;;;5.93;2.75;;;;;;;;;;6186151;23;20005;-70
2022/01/21 08:00:45;;;;;;;1.90;1.27;;;;;;;;;;6186177;23;20087;-70
2022/01/21 08:03:10;;;;;;;6.68;3.25;;;;;;;;;;6186018;23;20012;-69
2022/01/21 08:05:36;;;;;;;5.03;2.75;;;;;;;;;;6186260;23;20036;-70
2022/01/21 08:08:02;;;;;;;4.88;2.75;;;;;;;;;;6186192;23;20008;-70
2022/01/21 08:10:28;;;;;;;3.97;2.70;;;;;;;;;;6185979;23;20422;-70
2022/01/21 08:12:53;;;;;;;4.90;2.58;;;;;;;;;;6186033;23;20001;-70
2022/01/21 08:15:19;;;;;;;5.13;2.42;;;;;;;;;;6185987;23;20004;-70
2022/01/21 08:17:44;;;;;;;5.88;2.72;;;;;;;;;;6185858;23;20080;-70
2022/01/21 08:20:10;;;;;;;3.85;2.15;;;;;;;;;;6185732;23;19993;-70
2022/01/21 08:22:35;;;;;;;4.03;2.55;;;;;;;;;;6185866;23;20071;-70
2022/01/21 08:25:01;;;;;;;3.65;2.47;;;;;;;;;;6185832;23;20322;-70
2022/01/21 08:27:26;;;;;;;4.93;2.63;;;;;;;;;;6185788;23;20045;-70
2022/01/21 08:29:52;;;;;;;4.03;2.38;;;;;;;;;;6185968;23;20008;-70
2022/01/21 08:32:18;;;;;;;5.57;2.60;;;;;;;;;;6185768;23;20015;-70
2022/01/21 08:34:43;;;;;;;5.78;3.10;;;;;;;;;;6185475;23;20346;-70
2022/01/21 08:37:09;;;;;;;5.00;2.50;;;;;;;;;;6159623;23;20005;-70
2022/01/21 08:39:34;;;;;;;4.35;2.38;;;;;;;;;;6185735;23;20004;-70
2022/01/21 08:42:00;;;;;;;4.63;2.33;;;;;;;;;;6185243;23;20080;-70
2022/01/21 08:44:25;;;;;;;7.57;2.63;;;;;;;;;;6185261;23;20393;-71
2022/01/21 08:46:51;;;;;;;4.95;2.40;;;;;;;;;;6186017;23;20052;-70
2022/01/21 08:49:20;;;;;;;4.32;2.35;;;;;;;;;;6185697;23;20017;-70
2022/01/21 08:51:54;;;;;;;2.95;2.63;;;;;;;;;;6185521;23;20433;-70
2022/01/21 08:54:21;;;;;;;5.70;3.08;;;;;;;;;;6185823;23;20008;-70
2022/01/21 08:56:47;;;;;;;4.00;2.20;;;;;;;;;;6159571;23;20007;-70
2022/01/21 08:59:13;;;;;;;3.38;2.10;;;;;;;;;;6185642;23;20060;-70
2022/01/21 09:01:38;;;;;;;3.03;2.40;;;;;;;;;;6185601;23;20422;-70
2022/01/21 09:04:04;;;;;;;4.38;1.85;;;;;;;;;;6185477;23;20374;-70
2022/01/21 09:06:30;;;;;;;5.40;2.50;;;;;;;;;;6185373;23;20008;-75
2022/01/21 09:08:56;;;;;;;3.97;2.45;;;;;;;;;;6185584;23;20319;-73
2022/01/21 09:11:22;;;;;;;5.18;2.63;;;;;;;;;;6185575;23;20043;-70
2022/01/21 09:13:48;;;;;;;5.22;2.45;;;;;;;;;;6185561;23;20106;-70
2022/01/21 09:16:15;;;;;;;3.45;2.30;;;;;;;;;;6185375;23;20024;-70
2022/01/21 09:21:16;;;;;;;3.83;2.53;;;;;;;;;;6185866;23;20009;-70
2022/01/21 09:23:41;;;;;;;3.80;2.72;;;;;;;;;;6185739;23;20016;-70
2022/01/21 09:26:08;;;;;;;5.28;2.30;;;;;;;;;;6185444;23;20001;-70
2022/01/21 09:28:33;;;;;;;5.38;1.95;;;;;;;;;;6184842;23;20012;-70
2022/01/21 09:30:59;;;;;;;5.20;2.67;;;;;;;;;;6185277;23;20005;-70
2022/01/21 09:33:24;;;;;;;4.97;2.42;;;;;;;;;;6185323;23;20071;-70
2022/01/21 09:35:49;;;;;;;4.97;2.28;;;;;;;;;;6185652;23;19997;-70
2022/01/21 09:38:16;;;;;;;3.65;2.35;;;;;;;;;;6185444;23;20001;-70
2022/01/21 09:40:46;;;;;;;4.15;2.55;;;;;;;;;;6159282;23;20000;-70
2022/01/21 09:43:12;;;;;;;5.20;2.38;;;;;;;;;;6185403;23;20009;-70
2022/01/21 09:45:38;;;;;;;4.20;2.60;;;;;;;;;;6174964;23;20027;-70
2022/01/21 09:48:05;;;;;;;4.93;3.20;;;;;;;;;;6185335;23;20036;-70
2022/01/21 09:50:32;;;;;;;4.53;2.60;;;;;;;;;;6185311;23;20017;-70
2022/01/21 09:52:58;;;;;;;4.03;2.45;;;;;;;;;;6159540;23;20092;-70
2022/01/21 09:55:25;;;;;;;4.82;2.72;;;;;;;;;;6187696;23;20072;-70
2022/01/21 09:57:53;;;;;;;6.43;2.95;;;;;;;;;;6161334;23;20005;-70
2022/01/21 10:00:20;;;;;;;5.15;2.70;;;;;;;;;;6161228;23;20001;-70
2022/01/21 10:02:47;;;;;;;5.43;3.03;;;;;;;;;;6187171;23;20456;-70
2022/01/21 10:05:12;;;;;;;4.63;2.85;;;;;;;;;;6160960;23;20012;-70
2022/01/21 10:07:44;;;;;;;4.63;2.58;;;;;;;;;;6187069;23;20001;-70
2022/01/21 10:10:10;;;;;;;4.22;2.45;;;;;;;;;;6187572;23;20008;-70
2022/01/21 10:12:36;;;;;;;5.45;2.35;;;;;;;;;;6160833;23;19997;-70
2022/01/21 10:15:02;;;;;;;9.35;3.15;;;;;;;;;;6187123;23;20001;-70
2022/01/21 10:17:28;;;;;;;6.15;2.70;;;;;;;;;;6187043;23;20021;-70
2022/01/21 10:19:53;;;;;;;5.13;2.90;;;;;;;;;;6160643;23;20040;-70
2022/01/21 10:22:23;;;;;;;5.30;2.50;;;;;;;;;;6186676;23;20001;-70
2022/01/21 10:24:58;;;;;;;4.70;2.33;;;;;;;;;;6187205;23;20013;-70
2022/01/21 10:27:24;;;;;;;3.78;2.38;;;;;;;;;;6160651;23;20429;-70
2022/01/21 10:29:50;;;;;;;5.40;1.85;;;;;;;;;;6187193;23;20001;-70
2022/01/21 10:32:15;;;;;;;3.80;1.98;;;;;;;;;;6187104;23;20031;-70
2022/01/21 10:34:42;;;;;;;4.30;2.75;;;;;;;;;;6187092;23;20428;-70
2022/01/21 10:37:39;;;;;;;6.18;2.97;;;;;;;;;;6160869;23;20001;-70
2022/01/21 10:40:07;;;;;;;7.30;3.10;;;;;;;;;;6080796;23;20016;-70
2022/01/21 10:42:33;;;;;;;5.15;2.88;;;;;;;;;;6186907;23;20071;-70
2022/01/21 10:44:59;;;;;;;6.20;3.00;;;;;;;;;;6186526;23;20032;-71
2022/01/21 10:47:26;;;;;;;5.68;3.20;;;;;;;;;;6186997;23;20116;-70
2022/01/21 10:50:04;;;;;;;5.47;2.78;;;;;;;;;;6160846;23;20318;-70
2022/01/21 10:52:34;;;;;;;7.43;3.22;;;;;;;;;;6186747;23;20009;-70
2022/01/21 10:54:59;;;;;;;3.77;2.90;;;;;;;;;;6160468;23;20092;-70
2022/01/21 10:57:27;;;;;;;5.50;3.25;;;;;;;;;;6186857;23;20020;-70
2022/01/21 10:59:59;;;;;;;4.40;2.65;;;;;;;;;;6186713;23;20015;-70
2022/01/21 11:02:39;;;;;;;5.15;2.65;;;;;;;;;;6186511;23;20060;-70
2022/01/21 11:05:09;;;;;;;4.35;2.95;;;;;;;;;;6186392;23;20013;-70
2022/01/21 11:07:43;;;;;;;4.07;2.42;;;;;;;;;;6186728;23;20009;-70
2022/01/21 11:10:09;;;;;;;7.07;3.88;;;;;;;;;;6160475;23;20005;-70
2022/01/21 11:12:34;;;;;;;6.28;3.50;;;;;;;;;;6186597;23;20432;-70
2022/01/21 11:15:04;;;;;;;5.60;2.72;;;;;;;;;;6186117;23;20036;-71
2022/01/21 11:17:30;;;;;;;5.90;3.28;;;;;;;;;;6136012;23;20013;-70
2022/01/21 11:20:07;;;;;;;6.35;2.92;;;;;;;;;;6186488;23;19997;-70
2022/01/21 11:22:50;;;;;;;7.60;3.58;;;;;;;;;;6186330;23;20032;-70
2022/01/21 11:25:16;;;;;;;5.95;2.67;;;;;;;;;;6186678;23;20429;-70
2022/01/21 11:27:53;;;;;;;7.32;3.47;;;;;;;;;;6186394;23;20063;-71
2022/01/21 11:30:19;;;;;;;7.10;2.90;;;;;;;;;;6186386;23;20131;-70
2022/01/21 11:32:45;;;;;;;9.10;3.88;;;;;;;;;;6159971;23;20020;-70
2022/01/21 11:35:10;;;;;;;5.75;3.58;;;;;;;;;;6159950;23;20362;-70
2022/01/21 11:37:36;;;;;;;7.55;3.15;;;;;;;;;;6186304;23;20044;-70
2022/01/21 11:40:01;;;;;;;6.78;3.25;;;;;;;;;;6186251;23;20334;-70
2022/01/21 11:42:27;;;;;;;5.57;3.22;;;;;;;;;;6159863;23;20087;-70
2022/01/21 11:45:03;;;;;;;5.35;3.05;;;;;;;;;;6159610;23;20043;-71
2022/01/21 11:47:49;;;;;;;5.53;3.35;;;;;;;;;;6186496;23;20024;-70
2022/01/21 11:50:18;;;;;;;9.20;3.83;;;;;;;;;;6186531;23;20044;-70
2022/01/21 11:52:44;;;;;;;8.50;4.47;;;;;;;;;;6186228;23;20337;-70
2022/01/21 11:55:28;;;;;;;13.52;6.30;;;;;;;;;;6159924;23;20005;-70
2022/01/21 11:58:09;;;;;;;10.98;4.90;;;;;;;;;;6186488;23;20499;-70
2022/01/21 12:00:35;;;;;;;7.20;3.60;;;;;;;;;;6186236;23;20007;-70
2022/01/21 12:03:00;;;;;;;7.45;3.33;;;;;;;;;;6186295;23;20025;-70
2022/01/21 12:05:26;;;;;;;6.55;3.63;;;;;;;;;;6186125;23;20040;-70
2022/01/21 12:07:51;;;;;;;9.75;4.18;;;;;;;;;;6186018;23;19997;-70
2022/01/21 12:10:23;;;;;;;5.03;2.83;;;;;;;;;;6186091;23;20000;-70
2022/01/21 12:13:12;;;;;;;10.32;3.85;;;;;;;;;;6186024;23;20013;-70
2022/01/21 12:18:21;;;;;;;6.05;3.40;;;;;;;;;;6185968;23;20060;-70
2022/01/21 12:20:47;;;;;;;3.10;2.38;;;;;;;;;;6186277;23;20393;-71
2022/01/21 12:23:14;;;;;;;5.45;2.35;;;;;;;;;;6186038;23;20001;-70
2022/01/21 12:25:58;;;;;;;4.97;2.88;;;;;;;;;;6185846;23;20341;-70
2022/01/21 12:28:24;;;;;;;8.40;3.30;;;;;;;;;;6185890;23;20009;-70
2022/01/21 12:30:53;;;;;;;4.95;3.15;;;;;;;;;;6185848;23;20032;-70
2022/01/21 12:34:03;;;;;;;4.75;2.35;;;;;;;;;;6159583;23;20005;-70
2022/01/21 12:36:31;;;;;;;5.85;3.30;;;;;;;;;;6159620;23;20141;-71
2022/01/21 12:41:22;;;;;;;6.30;3.42;;;;;;;;;;6185750;23;20035;-70
2022/01/21 12:43:47;;;;;;;4.53;2.55;;;;;;;;;;6159377;23;20051;-70
2022/01/21 12:46:17;;;;;;;3.90;2.40;;;;;;;;;;6133756;23;20024;-70
2022/01/21 12:48:45;;;;;;;3.40;2.13;;;;;;;;;;6155976;23;20017;-70
2022/01/21 12:51:54;;;;;;;4.95;2.85;;;;;;;;;;6087804;23;20064;-70
2022/01/21 12:57:03;;;;;;;4.43;2.63;;;;;;;;;;6156076;23;20048;-70
2022/01/21 12:59:29;;;;;;;3.47;2.00;;;;;;;;;;6155576;23;20001;-71
2022/01/21 13:01:56;;;;;;;2.75;1.85;;;;;;;;;;6129767;23;20330;-70
2022/01/21 13:04:39;;;;;;;4.63;2.20;;;;;;;;;;6129707;23;19997;-70
2022/01/21 13:07:07;;;;;;;3.80;2.25;;;;;;;;;;6155892;23;20016;-70
2022/01/21 13:09:50;;;;;;;4.15;2.25;;;;;;;;;;6155892;23;20115;-70
2022/01/21 13:12:16;;;;;;;4.65;2.08;;;;;;;;;;6155669;23;20500;-70
2022/01/21 13:14:51;;;;;;;4.10;2.20;;;;;;;;;;6155811;23;19997;-71
2022/01/21 13:17:18;;;;;;;3.58;1.60;;;;;;;;;;6155705;23;20001;-71
2022/01/21 13:19:43;;;;;;;3.78;2.30;;;;;;;;;;6155826;23;20414;-71
2022/01/21 13:22:19;;;;;;;3.00;2.13;;;;;;;;;;6129678;23;20014;-71
2022/01/21 13:25:04;;;;;;;6.97;2.42;;;;;;;;;;6155700;23;20005;-71
2022/01/21 13:27:30;;;;;;;3.13;2.25;;;;;;;;;;6105132;23;20010;-72
2022/01/21 13:30:00;;;;;;;5.05;2.03;;;;;;;;;;6129717;23;20426;-71
2022/01/21 13:32:26;;;;;;;5.78;3.25;;;;;;;;;;6155629;23;20006;-72
2022/01/21 13:34:51;;;;;;;5.15;2.63;;;;;;;;;;6155610;23;20004;-72
2022/01/21 13:37:18;;;;;;;2.92;1.85;;;;;;;;;;6155639;23;20033;-72
2022/01/21 13:39:45;;;;;;;3.75;1.92;;;;;;;;;;6155638;23;19998;-72
2022/01/21 13:42:17;;;;;;;4.15;2.50;;;;;;;;;;6129878;23;20005;-72
2022/01/21 13:44:49;;;;;;;3.58;2.33;;;;;;;;;;6104983;23;20009;-72
2022/01/21 13:47:42;;;;;;;5.35;2.90;;;;;;;;;;6129183;23;20021;-72
2022/01/21 13:50:18;;;;;;;5.60;2.90;;;;;;;;;;6124880;23;20025;-72
2022/01/21 13:52:48;;;;;;;5.43;3.00;;;;;;;;;;6155475;23;20032;-73
2022/01/21 13:55:25;;;;;;;5.47;2.97;;;;;;;;;;6129687;23;20005;-71
2022/01/21 13:57:52;;;;;;;6.63;3.33;;;;;;;;;;6129644;23;20009;-72
2022/01/21 14:00:46;;;;;;;7.57;3.88;;;;;;;;;;6155230;23;19994;-72
2022/01/21 14:03:11;;;;;;;8.27;3.88;;;;;;;;;;6104637;23;20020;-72
2022/01/21 14:05:46;;;;;;;6.38;4.25;;;;;;;;;;6129515;23;19997;-72
2022/01/21 14:08:13;;;;;;;6.22;3.72;;;;;;;;;;6129444;23;20005;-72
2022/01/21 14:10:38;;;;;;;5.82;3.10;;;;;;;;;;6104953;23;20009;-72
2022/01/21 14:13:04;;;;;;;8.18;3.72;;;;;;;;;;6155535;23;20006;-72
2022/01/21 14:15:30;;;;;;;5.80;3.13;;;;;;;;;;6155575;23;20001;-72
2022/01/21 14:17:55;;;;;;;7.75;3.05;;;;;;;;;;6155568;23;20010;-71
2022/01/21 14:20:21;;;;;;;9.80;4.38;;;;;;;;;;6155534;23;19998;-72
2022/01/21 14:22:47;;;;;;;7.55;4.47;;;;;;;;;;6155496;23;20346;-72
2022/01/21 14:25:13;;;;;;;7.80;3.80;;;;;;;;;;6155402;23;20057;-72
2022/01/21 14:27:45;;;;;;;7.13;3.90;;;;;;;;;;6155375;23;20005;-71
2022/01/21 14:30:12;;;;;;;7.07;4.15;;;;;;;;;;6155531;23;20009;-71
2022/01/21 14:32:39;;;;;;;11.45;4.43;;;;;;;;;;6155237;23;20422;-71
2022/01/21 14:35:11;;;;;;;9.70;4.30;;;;;;;;;;6155382;23;20052;-71
2022/01/21 14:37:38;;;;;;;7.30;3.53;;;;;;;;;;6155243;23;20080;-71
2022/01/21 14:40:04;;;;;;;9.68;3.95;;;;;;;;;;6155924;23;20011;-71
2022/01/21 14:42:29;;;;;;;7.80;3.53;;;;;;;;;;6131199;23;20037;-71
2022/01/21 14:45:00;;;;;;;10.30;4.68;;;;;;;;;;6157201;23;20389;-71
2022/01/21 14:47:25;;;;;;;8.95;5.00;;;;;;;;;;6184423;23;20017;-71
2022/01/21 14:50:11;;;;;;;6.80;4.03;;;;;;;;;;6135779;23;20035;-71
2022/01/21 14:52:37;;;;;;;10.65;4.38;;;;;;;;;;6160207;23;20065;-71
2022/01/21 14:55:25;;;;;;;10.82;5.47;;;;;;;;;;6159878;23;20001;-71
2022/01/21 14:57:52;;;;;;;7.90;4.38;;;;;;;;;;6135818;23;20437;-71
2022/01/21 15:00:22;;;;;;;7.45;3.53;;;;;;;;;;6186636;23;20081;-71
2022/01/21 15:02:47;;;;;;;8.35;3.58;;;;;;;;;;6186455;23;20064;-71
2022/01/21 15:05:14;;;;;;;4.65;2.85;;;;;;;;;;6186653;23;20005;-71
2022/01/21 15:07:42;;;;;;;4.50;2.78;;;;;;;;;;6186593;23;20020;-71
2022/01/21 15:10:23;;;;;;;4.63;2.78;;;;;;;;;;6186754;23;20005;-71
2022/01/21 15:15:32;;;;;;;5.40;2.45;;;;;;;;;;6160161;23;20025;-71
2022/01/21 15:17:58;;;;;;;5.75;2.97;;;;;;;;;;6186388;23;19997;-71
2022/01/21 15:20:29;;;;;;;8.55;4.03;;;;;;;;;;6160131;23;20001;-71
2022/01/21 15:22:54;;;;;;;9.45;3.38;;;;;;;;;;6186551;23;20009;-71
2022/01/21 15:25:20;;;;;;;3.70;2.42;;;;;;;;;;6160124;23;20076;-71
2022/01/21 15:27:45;;;;;;;6.38;2.85;;;;;;;;;;6160042;23;20325;-71
2022/01/21 15:30:12;;;;;;;4.95;2.58;;;;;;;;;;6160002;23;20005;-71
2022/01/21 15:32:37;;;;;;;4.68;3.08;;;;;;;;;;6161101;23;20016;-71
2022/01/21 15:35:03;;;;;;;4.95;3.17;;;;;;;;;;6186484;23;20005;-71
2022/01/21 15:37:29;;;;;;;6.05;3.30;;;;;;;;;;6134979;23;20059;-71
2022/01/21 15:39:55;;;;;;;7.32;3.60;;;;;;;;;;6186373;23;20417;-71
2022/01/21 15:42:21;;;;;;;6.35;3.72;;;;;;;;;;6159205;23;20076;-71
2022/01/21 15:44:47;;;;;;;5.63;3.15;;;;;;;;;;6185285;23;20398;-71
2022/01/21 15:47:12;;;;;;;5.55;3.05;;;;;;;;;;6185606;23;20348;-71
2022/01/21 15:49:38;;;;;;;7.53;3.80;;;;;;;;;;6186182;23;20011;-71